Time;durP1;ratioP1;P1;durP2;ratioP2;P2;SDS_P1;SDS_P2;PMS_P1;PMS_P2;Temp;Humidity;BMP_temperature;BMP_pressure;BME280_temperature;BME280_humidity;BME280_pressure;Samples;Min_cycle;Max_cycle;Signal;HPM_P1;HPM_P2
2023/01/14 00:01:51;;;;;;;1.60;0.17;;;5.70;99.90;;;;;;5061628;28;20032;-82
2023/01/14 00:04:16;;;;;;;3.00;0.43;;;5.70;99.90;;;;;;5043548;28;20352;-82
2023/01/14 00:06:42;;;;;;;3.67;0.50;;;5.80;99.90;;;;;;5043911;28;20092;-82
2023/01/14 00:09:12;;;;;;;1.95;0.20;;;5.80;99.90;;;;;;5024071;28;20030;-82
2023/01/14 00:11:47;;;;;;;4.25;0.65;;;5.90;99.90;;;;;;5040591;28;20037;-82
2023/01/14 00:14:33;;;;;;;4.72;0.70;;;5.80;99.90;;;;;;5041286;28;20113;-82
2023/01/14 00:17:00;;;;;;;3.30;0.22;;;5.80;99.90;;;;;;5042678;28;20040;-82
2023/01/14 00:19:26;;;;;;;2.88;0.40;;;5.80;99.90;;;;;;5043392;28;20025;-82
2023/01/14 00:21:54;;;;;;;0.95;0.20;;;5.80;99.90;;;;;;5043396;28;20021;-83
2023/01/14 00:24:21;;;;;;;1.10;0.43;;;5.80;99.90;;;;;;5043699;28;20639;-82
2023/01/14 00:26:52;;;;;;;2.40;0.32;;;5.80;99.90;;;;;;5042975;28;20029;-82
2023/01/14 00:29:24;;;;;;;2.25;0.40;;;5.80;99.90;;;;;;5043803;28;20096;-82
2023/01/14 00:31:52;;;;;;;3.17;0.50;;;5.70;99.90;;;;;;5061084;28;20025;-82
2023/01/14 00:34:18;;;;;;;1.92;0.55;;;5.90;99.90;;;;;;5042410;28;20110;-82
2023/01/14 00:36:44;;;;;;;4.75;0.63;;;5.90;99.90;;;;;;5060236;28;20037;-81
2023/01/14 00:39:10;;;;;;;1.23;0.30;;;6.00;99.90;;;;;;5041872;28;20216;-82
2023/01/14 00:41:36;;;;;;;2.40;0.35;;;6.20;99.90;;;;;;5042480;28;20120;-81
2023/01/14 00:44:02;;;;;;;3.20;0.52;;;6.20;99.90;;;;;;5059949;28;20559;-82
2023/01/14 00:46:30;;;;;;;3.08;0.50;;;6.40;99.90;;;;;;5058251;28;20075;-82
2023/01/14 00:48:58;;;;;;;2.00;0.40;;;6.50;99.90;;;;;;5059233;28;20492;-82
2023/01/14 00:51:24;;;;;;;0.90;0.47;;;6.50;99.90;;;;;;5042386;28;20044;-82
2023/01/14 00:53:50;;;;;;;3.20;0.80;;;6.50;99.90;;;;;;5060902;28;20036;-82
2023/01/14 00:56:17;;;;;;;3.33;0.32;;;6.50;99.90;;;;;;5044019;28;20021;-82
2023/01/14 00:58:43;;;;;;;1.27;0.43;;;6.50;99.90;;;;;;5043691;28;20017;-82
2023/01/14 01:01:09;;;;;;;1.80;0.40;;;6.50;99.90;;;;;;5042045;28;20032;-82
2023/01/14 01:03:48;;;;;;;1.20;0.38;;;6.60;99.90;;;;;;5042497;28;20025;-82
2023/01/14 01:06:16;;;;;;;1.48;0.30;;;6.60;99.90;;;;;;5061091;28;20036;-82
2023/01/14 01:08:42;;;;;;;2.15;0.57;;;6.60;99.90;;;;;;5060278;28;20108;-82
2023/01/14 01:11:08;;;;;;;0.90;0.40;;;6.60;99.90;;;;;;5041737;28;20079;-82
2023/01/14 01:13:35;;;;;;;0.95;0.40;;;6.60;99.90;;;;;;5060340;28;20017;-82
2023/01/14 01:16:09;;;;;;;2.40;0.40;;;6.60;99.90;;;;;;5059937;28;20029;-82
2023/01/14 01:18:36;;;;;;;2.88;0.30;;;6.50;99.90;;;;;;5040608;28;20025;-82
2023/01/14 01:21:10;;;;;;;1.10;0.68;;;6.60;99.90;;;;;;5058204;28;20037;-82
2023/01/14 01:23:41;;;;;;;1.90;0.30;;;6.60;99.90;;;;;;5040464;28;20021;-82
2023/01/14 01:26:13;;;;;;;1.55;0.40;;;6.70;99.90;;;;;;5039659;28;20055;-81
2023/01/14 01:28:38;;;;;;;1.42;0.50;;;6.70;99.90;;;;;;5058701;28;20424;-81
2023/01/14 01:31:07;;;;;;;1.58;0.30;;;6.70;99.90;;;;;;5041038;28;20025;-82
2023/01/14 01:33:33;;;;;;;2.50;0.52;;;6.70;99.90;;;;;;5040690;28;20021;-82
2023/01/14 01:36:04;;;;;;;2.50;0.40;;;6.70;99.90;;;;;;5059029;28;20458;-81
2023/01/14 01:38:31;;;;;;;1.15;0.57;;;6.70;99.90;;;;;;5041135;28;20029;-82
2023/01/14 01:40:57;;;;;;;0.82;0.30;;;6.60;99.90;;;;;;5039865;28;20021;-82
2023/01/14 01:43:26;;;;;;;2.63;0.50;;;6.70;99.90;;;;;;5040515;28;20056;-82
2023/01/14 01:45:52;;;;;;;1.45;0.50;;;6.60;99.90;;;;;;5041207;28;20032;-83
2023/01/14 01:48:33;;;;;;;0.77;0.40;;;6.60;99.90;;;;;;5040801;28;20455;-82
2023/01/14 01:51:17;;;;;;;1.15;0.65;;;6.60;99.90;;;;;;5039400;28;20029;-81
2023/01/14 01:53:50;;;;;;;1.58;0.93;;;6.60;99.90;;;;;;5040259;28;20063;-82
2023/01/14 01:56:19;;;;;;;1.23;0.70;;;6.60;99.90;;;;;;5039263;28;20036;-82
2023/01/14 01:58:45;;;;;;;2.42;1.00;;;6.60;99.90;;;;;;5056572;28;20021;-82
2023/01/14 02:01:13;;;;;;;3.00;0.65;;;6.60;99.90;;;;;;5038701;28;20072;-82
2023/01/14 02:03:41;;;;;;;2.17;0.60;;;6.60;99.90;;;;;;5038325;28;20021;-82
2023/01/14 02:06:08;;;;;;;4.07;1.05;;;6.70;99.90;;;;;;5056069;28;20029;-81
2023/01/14 02:08:38;;;;;;;2.25;0.55;;;6.70;99.90;;;;;;5038268;28;20029;-82
2023/01/14 02:11:24;;;;;;;0.93;0.40;;;6.70;99.90;;;;;;5055947;28;20386;-81
2023/01/14 02:13:58;;;;;;;3.05;0.95;;;6.70;99.90;;;;;;5038500;28;20028;-82
2023/01/14 02:16:48;;;;;;;1.75;0.68;;;6.70;99.90;;;;;;5055218;28;20102;-82
2023/01/14 02:19:17;;;;;;;1.67;0.65;;;6.70;99.90;;;;;;5055233;28;20556;-81
2023/01/14 02:22:15;;;;;;;1.55;0.47;;;6.70;99.90;;;;;;5054713;28;20162;-82
2023/01/14 02:24:59;;;;;;;2.00;0.50;;;6.80;99.90;;;;;;5055545;28;20028;-82
2023/01/14 02:27:58;;;;;;;2.47;0.73;;;6.80;99.90;;;;;;5031688;28;20061;-82
2023/01/14 02:31:02;;;;;;;2.22;0.60;;;6.70;99.90;;;;;;5035340;28;20061;-81
2023/01/14 02:33:46;;;;;;;1.33;0.32;;;6.80;99.90;;;;;;5034648;28;20037;-82
2023/01/14 02:36:43;;;;;;;1.17;0.55;;;6.80;99.90;;;;;;5054969;28;20363;-82
2023/01/14 02:39:25;;;;;;;0.98;0.40;;;6.80;99.90;;;;;;5055380;28;20029;-81
2023/01/14 02:45:27;;;;;;;1.08;0.55;;;6.80;99.90;;;;;;5054935;28;20082;-81
2023/01/14 02:47:53;;;;;;;2.65;0.22;;;6.80;99.90;;;;;;5037609;28;20524;-82
2023/01/14 02:50:19;;;;;;;1.50;0.30;;;6.70;99.90;;;;;;5036908;28;20029;-81
2023/01/14 02:52:45;;;;;;;2.45;0.30;;;6.70;99.90;;;;;;5036887;28;20469;-81
2023/01/14 02:55:31;;;;;;;1.65;0.50;;;6.70;99.90;;;;;;5054797;28;20029;-82
2023/01/14 02:58:28;;;;;;;4.20;0.60;;;6.70;99.90;;;;;;5054847;28;20112;-82
2023/01/14 03:01:02;;;;;;;1.77;0.50;;;6.60;99.90;;;;;;5037393;28;20374;-81
2023/01/14 03:03:50;;;;;;;1.95;0.32;;;6.70;99.90;;;;;;5037921;28;20467;-81
2023/01/14 03:06:34;;;;;;;2.80;0.50;;;6.70;99.90;;;;;;5039035;28;20025;-81
2023/01/14 03:09:07;;;;;;;1.23;0.50;;;6.70;99.90;;;;;;5038947;28;20382;-81
2023/01/14 03:11:49;;;;;;;1.75;0.30;;;6.70;99.90;;;;;;5056990;28;20039;-81
2023/01/14 03:14:24;;;;;;;1.77;0.30;;;6.60;99.90;;;;;;5056511;28;20528;-81
2023/01/14 03:17:17;;;;;;;1.17;0.28;;;6.60;99.90;;;;;;5056541;28;20025;-82
2023/01/14 03:19:51;;;;;;;4.65;0.73;;;6.70;99.90;;;;;;5041422;28;20045;-81
2023/01/14 03:22:17;;;;;;;0.68;0.20;;;6.70;99.90;;;;;;5054764;28;20028;-81
2023/01/14 03:24:45;;;;;;;0.85;0.30;;;6.70;99.90;;;;;;5036468;28;20025;-81
2023/01/14 03:27:23;;;;;;;4.55;0.35;;;6.70;99.90;;;;;;5054200;28;20040;-82
2023/01/14 03:29:54;;;;;;;4.03;0.28;;;6.70;99.90;;;;;;5054506;28;20115;-81
2023/01/14 03:32:30;;;;;;;2.97;0.13;;;6.70;99.90;;;;;;5055903;28;20029;-81
2023/01/14 03:35:03;;;;;;;1.65;0.20;;;6.70;99.90;;;;;;5058565;28;20017;-82
2023/01/14 03:37:29;;;;;;;2.35;0.73;;;6.70;99.90;;;;;;5041169;28;20126;-81
2023/01/14 03:39:58;;;;;;;3.05;0.32;;;6.70;99.90;;;;;;5040877;28;20029;-81
2023/01/14 03:42:28;;;;;;;1.70;0.30;;;6.70;99.90;;;;;;5040481;28;20451;-81
2023/01/14 03:45:10;;;;;;;1.00;0.45;;;6.70;99.90;;;;;;5040306;28;20033;-81
2023/01/14 03:47:37;;;;;;;2.33;0.40;;;6.70;99.90;;;;;;5040867;28;20021;-81
2023/01/14 03:50:07;;;;;;;2.58;0.20;;;6.60;99.90;;;;;;5040429;28;20067;-81
2023/01/14 03:52:48;;;;;;;3.20;0.15;;;6.60;99.90;;;;;;5041302;28;20140;-81
2023/01/14 03:55:23;;;;;;;1.65;0.55;;;6.70;99.90;;;;;;5058369;28;20031;-81
2023/01/14 03:58:27;;;;;;;2.85;1.00;;;6.60;99.90;;;;;;5040606;28;20430;-81
2023/01/14 04:00:57;;;;;;;2.28;0.30;;;6.60;99.90;;;;;;5040743;28;20067;-82
2023/01/14 04:03:24;;;;;;;5.32;0.40;;;6.60;99.90;;;;;;5058498;28;20021;-81
2023/01/14 04:05:51;;;;;;;3.60;1.00;;;6.60;99.90;;;;;;5040296;28;20055;-81
2023/01/14 04:08:20;;;;;;;3.60;0.20;;;6.60;99.90;;;;;;5057629;28;20021;-82
2023/01/14 04:10:46;;;;;;;1.83;0.30;;;6.60;99.90;;;;;;5057732;28;20382;-81
2023/01/14 04:15:59;;;;;;;1.58;0.30;;;6.60;99.90;;;;;;5057785;28;20032;-82
2023/01/14 04:18:24;;;;;;;4.45;0.77;;;6.60;99.90;;;;;;5040320;28;20387;-82
2023/01/14 04:20:50;;;;;;;3.83;0.30;;;6.60;99.90;;;;;;5040421;28;20378;-81
2023/01/14 04:23:16;;;;;;;5.28;0.32;;;6.60;99.90;;;;;;5039941;28;20025;-81
2023/01/14 04:25:41;;;;;;;1.67;0.30;;;6.60;99.90;;;;;;5039995;28;20025;-82
2023/01/14 04:28:07;;;;;;;1.17;0.38;;;6.50;99.90;;;;;;5057830;28;20056;-81
2023/01/14 04:30:33;;;;;;;5.03;0.80;;;6.50;99.90;;;;;;5039527;28;20033;-82
2023/01/14 04:33:10;;;;;;;0.47;0.10;;;6.50;99.90;;;;;;5057511;28;20033;-81
2023/01/14 04:35:36;;;;;;;2.00;0.52;;;6.50;99.90;;;;;;5057661;28;20036;-81
2023/01/14 04:38:02;;;;;;;1.95;0.28;;;6.50;99.90;;;;;;5039411;28;20381;-81
2023/01/14 04:40:27;;;;;;;1.60;0.20;;;6.50;99.90;;;;;;5039329;28;20056;-81
2023/01/14 04:42:53;;;;;;;1.00;0.50;;;6.50;99.90;;;;;;5039688;28;20068;-81
2023/01/14 04:45:19;;;;;;;3.80;0.45;;;6.50;99.90;;;;;;5056353;28;20109;-81
2023/01/14 04:47:44;;;;;;;3.25;0.30;;;6.50;99.90;;;;;;5057127;28;20036;-81
2023/01/14 04:50:30;;;;;;;1.15;0.40;;;6.50;99.90;;;;;;5056798;28;20429;-81
2023/01/14 04:53:12;;;;;;;5.68;0.50;;;6.60;99.90;;;;;;5056986;28;20108;-82
2023/01/14 04:55:40;;;;;;;1.15;0.32;;;6.60;99.90;;;;;;5056671;28;20423;-81
2023/01/14 04:58:09;;;;;;;4.93;0.50;;;6.60;99.90;;;;;;5039264;28;20056;-81
2023/01/14 05:00:35;;;;;;;2.85;0.65;;;6.60;99.90;;;;;;5057270;28;20068;-82
2023/01/14 05:03:03;;;;;;;6.40;0.55;;;6.70;99.90;;;;;;5039671;28;20048;-81
2023/01/14 05:05:29;;;;;;;1.95;0.52;;;6.70;99.90;;;;;;5038785;28;20029;-82
2023/01/14 05:07:54;;;;;;;3.83;0.30;;;6.70;99.90;;;;;;5038939;28;20059;-82
2023/01/14 05:10:20;;;;;;;5.82;1.35;;;6.80;99.90;;;;;;5038353;28;20127;-81
2023/01/14 05:12:57;;;;;;;2.75;0.20;;;6.80;99.90;;;;;;5057103;28;20035;-81
2023/01/14 05:15:33;;;;;;;3.28;0.45;;;6.80;99.90;;;;;;5056646;28;20057;-82
2023/01/14 05:17:59;;;;;;;2.63;0.45;;;6.80;99.90;;;;;;5038900;28;20032;-82
2023/01/14 05:20:26;;;;;;;2.72;0.30;;;6.80;99.90;;;;;;5057002;28;20033;-81
2023/01/14 05:22:58;;;;;;;6.75;0.40;;;6.90;99.90;;;;;;5056560;28;20025;-82
2023/01/14 05:25:24;;;;;;;2.08;0.17;;;6.70;99.90;;;;;;5056613;28;20070;-82
2023/01/14 05:27:49;;;;;;;2.53;0.30;;;6.90;99.90;;;;;;5056172;28;20053;-81
2023/01/14 05:30:15;;;;;;;2.45;0.38;;;6.90;99.90;;;;;;5056515;28;20068;-81
2023/01/14 05:32:41;;;;;;;1.70;0.73;;;6.90;99.90;;;;;;5056972;28;20099;-81
2023/01/14 05:35:07;;;;;;;3.30;0.30;;;6.90;99.90;;;;;;5038744;28;20029;-81
2023/01/14 05:37:33;;;;;;;3.60;0.45;;;6.90;99.90;;;;;;5056194;28;20103;-81
2023/01/14 05:40:00;;;;;;;2.30;0.57;;;6.90;99.90;;;;;;5038381;28;20033;-81
2023/01/14 05:47:55;;;;;;;2.10;0.65;;;6.70;99.90;;;;;;5056281;28;20039;-81
2023/01/14 05:50:21;;;;;;;6.93;0.47;;;6.60;99.90;;;;;;5037654;28;20041;-81
2023/01/14 05:52:47;;;;;;;3.30;0.40;;;6.60;99.90;;;;;;5038448;28;20055;-81
2023/01/14 05:55:13;;;;;;;4.15;0.65;;;6.60;99.90;;;;;;5055096;28;20459;-81
2023/01/14 05:57:38;;;;;;;2.50;0.35;;;6.60;99.90;;;;;;5055594;28;20027;-81
2023/01/14 06:00:05;;;;;;;4.85;0.40;;;6.60;99.90;;;;;;5055511;28;20486;-81
2023/01/14 06:08:01;;;;;;;1.35;0.77;;;6.50;99.90;;;;;;5055716;28;20036;-82
2023/01/14 06:10:28;;;;;;;5.63;0.50;;;6.60;99.90;;;;;;5037005;28;20043;-81
2023/01/14 06:12:57;;;;;;;11.73;0.85;;;6.60;99.90;;;;;;5037253;28;20063;-81
2023/01/14 06:15:24;;;;;;;2.75;0.40;;;6.60;99.90;;;;;;5036893;28;20049;-81
2023/01/14 06:17:58;;;;;;;3.60;0.57;;;6.60;99.90;;;;;;5054985;28;20060;-80
2023/01/14 06:20:24;;;;;;;2.78;0.38;;;6.60;99.90;;;;;;5037559;28;20028;-81
2023/01/14 06:22:54;;;;;;;1.98;0.30;;;6.60;99.90;;;;;;5037562;28;20036;-82
2023/01/14 06:25:20;;;;;;;1.95;0.40;;;6.60;99.90;;;;;;5055034;28;20021;-82
2023/01/14 06:27:45;;;;;;;4.63;0.70;;;6.50;99.90;;;;;;5036651;28;20045;-81
2023/01/14 06:30:11;;;;;;;1.88;0.25;;;6.60;99.90;;;;;;5054680;28;20033;-81
2023/01/14 06:32:37;;;;;;;1.42;0.32;;;6.50;99.90;;;;;;5037125;28;20052;-81
2023/01/14 06:35:03;;;;;;;4.47;0.32;;;6.50;99.90;;;;;;5037017;28;20025;-80
2023/01/14 06:37:29;;;;;;;3.53;0.50;;;6.50;99.90;;;;;;5037340;28;20021;-81
2023/01/14 06:39:54;;;;;;;4.47;0.73;;;6.40;99.90;;;;;;5037473;28;20493;-81
2023/01/14 06:42:20;;;;;;;2.00;0.40;;;6.40;99.90;;;;;;5037069;28;20025;-81
2023/01/14 06:44:46;;;;;;;4.95;0.43;;;6.40;99.90;;;;;;5037211;28;20446;-80
2023/01/14 06:47:12;;;;;;;1.38;0.40;;;6.30;99.90;;;;;;5037061;28;20390;-81
2023/01/14 06:49:37;;;;;;;2.83;0.30;;;6.30;99.90;;;;;;5054689;28;20029;-81
2023/01/14 06:52:03;;;;;;;4.82;0.28;;;6.30;99.90;;;;;;5036987;28;20119;-81
2023/01/14 06:54:29;;;;;;;1.27;0.20;;;6.30;99.90;;;;;;5037416;28;20032;-81
2023/01/14 06:56:54;;;;;;;2.13;0.30;;;6.30;99.90;;;;;;5054547;28;20375;-81
2023/01/14 06:59:20;;;;;;;6.63;0.57;;;6.30;99.90;;;;;;5037171;28;20058;-81
2023/01/14 07:01:46;;;;;;;2.20;0.50;;;6.20;99.90;;;;;;5036930;28;20029;-80
2023/01/14 07:04:12;;;;;;;1.40;0.68;;;6.20;99.90;;;;;;5036473;28;20063;-82
2023/01/14 07:06:38;;;;;;;3.83;1.05;;;6.20;99.90;;;;;;5036395;28;20025;-81
2023/01/14 07:09:03;;;;;;;4.05;1.27;;;6.30;99.90;;;;;;5054544;28;20147;-81
2023/01/14 07:11:29;;;;;;;8.43;0.52;;;6.30;99.90;;;;;;5054643;28;20506;-81
2023/01/14 07:13:55;;;;;;;1.90;0.45;;;6.30;99.90;;;;;;5054094;28;20486;-81
2023/01/14 07:16:20;;;;;;;5.80;0.50;;;6.30;99.90;;;;;;5036271;28;20027;-81
2023/01/14 07:18:46;;;;;;;4.68;0.60;;;6.30;99.90;;;;;;5036257;28;20115;-81
2023/01/14 07:21:12;;;;;;;4.22;0.47;;;6.30;99.90;;;;;;5036462;28;20025;-81
2023/01/14 07:23:37;;;;;;;1.65;0.55;;;6.30;99.90;;;;;;5036512;28;20060;-81
2023/01/14 07:26:03;;;;;;;4.90;1.33;;;6.30;99.90;;;;;;5036709;28;20033;-82
2023/01/14 07:28:29;;;;;;;1.80;0.50;;;6.30;99.90;;;;;;5036858;28;20057;-81
2023/01/14 07:30:55;;;;;;;7.00;0.70;;;6.30;99.90;;;;;;5037344;28;20422;-81
2023/01/14 07:33:21;;;;;;;5.03;0.47;;;6.30;99.90;;;;;;5055245;28;20047;-82
2023/01/14 07:35:51;;;;;;;1.63;0.50;;;6.40;99.90;;;;;;5056336;28;20075;-81
2023/01/14 07:38:18;;;;;;;5.53;0.60;;;6.40;99.90;;;;;;5036953;28;20491;-81
2023/01/14 07:40:44;;;;;;;2.83;0.40;;;6.50;99.90;;;;;;5036479;28;20060;-81
2023/01/14 07:43:09;;;;;;;5.53;1.27;;;6.60;99.90;;;;;;5036465;28;20036;-81
2023/01/14 07:45:35;;;;;;;3.17;0.45;;;6.70;99.90;;;;;;5054803;28;20029;-81
2023/01/14 07:48:01;;;;;;;4.15;1.13;;;6.70;99.90;;;;;;5036239;28;20036;-80
2023/01/14 07:50:26;;;;;;;2.33;0.50;;;6.70;99.90;;;;;;5054525;28;20382;-81
2023/01/14 07:52:58;;;;;;;4.35;0.60;;;6.70;99.90;;;;;;5036998;28;20120;-81
2023/01/14 07:55:25;;;;;;;2.40;0.40;;;6.70;99.90;;;;;;5036701;28;20036;-81
2023/01/14 07:57:51;;;;;;;5.35;0.38;;;6.80;99.90;;;;;;5054631;28;20055;-81
2023/01/14 08:00:18;;;;;;;1.88;0.25;;;6.80;99.90;;;;;;5037596;28;20075;-81
2023/01/14 08:02:44;;;;;;;3.92;0.50;;;6.90;99.90;;;;;;5055220;28;20055;-81
2023/01/14 08:05:10;;;;;;;5.40;0.30;;;6.90;99.90;;;;;;5055139;28;20025;-81
2023/01/14 08:07:36;;;;;;;3.58;0.50;;;6.90;99.90;;;;;;5037849;28;20061;-81
2023/01/14 08:10:02;;;;;;;4.10;0.30;;;7.00;99.90;;;;;;5056825;28;20090;-81
2023/01/14 08:12:31;;;;;;;3.05;0.50;;;7.10;99.90;;;;;;5037998;28;20037;-81
2023/01/14 08:14:58;;;;;;;;;;;7.20;99.90;;;;;;5039708;28;20025;-80
2023/01/14 08:17:23;;;;;;;0.38;0.20;;;7.50;99.90;;;;;;5040716;28;19904;-81
2023/01/14 08:19:49;;;;;;;4.68;1.05;;;7.70;99.90;;;;;;5040968;28;20025;-81
2023/01/14 08:22:15;;;;;;;6.65;0.80;;;7.80;99.90;;;;;;5062002;28;20389;-82
2023/01/14 08:24:41;;;;;;;4.05;0.43;;;8.00;99.90;;;;;;5045069;28;20028;-81
2023/01/14 08:27:06;;;;;;;2.10;0.32;;;8.20;99.90;;;;;;5062396;28;20084;-81
2023/01/14 08:29:32;;;;;;;3.78;0.50;;;8.40;99.90;;;;;;5062831;28;20029;-81
2023/01/14 08:31:58;;;;;;;3.40;0.80;;;8.60;99.90;;;;;;5063291;28;20025;-81
2023/01/14 08:34:24;;;;;;;5.68;0.93;;;8.70;99.90;;;;;;5044760;28;20021;-81
2023/01/14 08:36:50;;;;;;;2.80;0.30;;;9.00;99.90;;;;;;5045915;28;20028;-82
2023/01/14 08:39:17;;;;;;;4.72;0.43;;;9.40;99.90;;;;;;5064706;28;20028;-81
2023/01/14 08:41:43;;;;;;;2.65;0.38;;;9.50;99.90;;;;;;5045152;28;20454;-81
2023/01/14 08:44:09;;;;;;;4.20;0.25;;;9.50;99.80;;;;;;5062713;28;20047;-82
2023/01/14 08:46:35;;;;;;;3.35;0.38;;;9.70;99.30;;;;;;5062319;28;20103;-81
2023/01/14 08:49:01;;;;;;;3.88;0.40;;;9.70;99.10;;;;;;5044788;28;20494;-81
2023/01/14 08:51:28;;;;;;;2.38;0.40;;;9.80;98.50;;;;;;5063316;28;20086;-82
2023/01/14 08:54:00;;;;;;;5.03;0.40;;;10.00;98.20;;;;;;5047233;28;20064;-82
2023/01/14 08:56:26;;;;;;;2.15;0.50;;;10.40;97.00;;;;;;5066102;28;20495;-81
2023/01/14 08:58:52;;;;;;;3.15;0.30;;;10.50;95.70;;;;;;5048480;28;20025;-82
2023/01/14 09:01:18;;;;;;;6.25;0.40;;;10.60;95.20;;;;;;5046872;28;20036;-81
2023/01/14 09:03:45;;;;;;;4.47;0.68;;;11.00;94.10;;;;;;5040834;28;20025;-80
2023/01/14 09:06:13;;;;;;;3.15;0.38;;;11.40;92.60;;;;;;5041518;28;20059;-79
2023/01/14 09:17:10;;;;;;;3.33;0.50;;;11.40;89.30;;;;;;5059033;28;20039;-59
2023/01/14 09:19:39;;;;;;;3.97;0.52;;;11.60;91.10;;;;;;5055206;28;20036;-60
2023/01/14 09:22:06;;;;;;;3.03;0.63;;;11.90;90.40;;;;;;5055439;28;20025;-59
2023/01/14 09:24:31;;;;;;;4.88;0.60;;;12.10;89.80;;;;;;5055229;28;20036;-78
2023/01/14 09:26:57;;;;;;;3.17;0.50;;;12.30;85.50;;;;;;5056003;28;20078;-79
2023/01/14 09:29:23;;;;;;;2.72;0.77;;;12.30;82.90;;;;;;5056326;28;20040;-79
2023/01/14 09:31:49;;;;;;;2.90;0.77;;;12.30;81.50;;;;;;5058837;28;20029;-81
2023/01/14 09:34:14;;;;;;;3.47;0.40;;;11.90;82.80;;;;;;5057586;28;20109;-81
2023/01/14 09:36:40;;;;;;;2.65;0.57;;;12.20;82.00;;;;;;5037754;28;20127;-78
2023/01/14 09:39:06;;;;;;;2.92;0.40;;;12.10;81.10;;;;;;5039052;28;20029;-80
2023/01/14 09:41:39;;;;;;;2.05;0.93;;;12.20;81.20;;;;;;5055619;28;20034;-79
2023/01/14 09:44:07;;;;;;;4.40;0.40;;;11.80;81.90;;;;;;5055347;28;20384;-77
2023/01/14 09:46:35;;;;;;;2.17;0.50;;;11.70;82.20;;;;;;5055000;28;20025;-77
2023/01/14 09:49:03;;;;;;;3.88;0.70;;;11.70;82.70;;;;;;5055438;28;20025;-76
2023/01/14 09:51:37;;;;;;;3.85;0.47;;;12.00;82.00;;;;;;5037591;28;20493;-77
2023/01/14 09:54:14;;;;;;;3.33;0.60;;;11.80;81.80;;;;;;5055517;28;20055;-78
2023/01/14 09:56:40;;;;;;;2.00;0.63;;;12.40;80.20;;;;;;5055477;28;20036;-78
2023/01/14 09:59:36;;;;;;;6.68;0.93;;;12.30;78.50;;;;;;5041776;28;20033;-82
2023/01/14 10:02:22;;;;;;;3.95;0.35;;;12.30;78.20;;;;;;5048369;28;20028;-82
2023/01/14 10:05:28;;;;;;;3.03;0.47;;;11.80;79.50;;;;;;5065063;28;20032;-81
2023/01/14 10:08:01;;;;;;;2.45;0.30;;;11.70;80.40;;;;;;5062495;28;20025;-81
2023/01/14 10:10:29;;;;;;;6.35;0.50;;;11.60;80.40;;;;;;5063385;28;20029;-82
2023/01/14 10:12:57;;;;;;;3.03;0.25;;;11.30;82.00;;;;;;5045643;28;20039;-81
2023/01/14 10:15:48;;;;;;;2.20;0.70;;;11.30;81.90;;;;;;5063047;28;20025;-81
2023/01/14 10:18:33;;;;;;;5.47;0.60;;;11.10;82.70;;;;;;5045275;28;20071;-81
2023/01/14 10:21:01;;;;;;;3.45;0.50;;;11.10;83.40;;;;;;5062954;28;20082;-81
2023/01/14 10:23:28;;;;;;;4.47;0.60;;;11.30;83.10;;;;;;5064276;28;20024;-81
2023/01/14 10:25:56;;;;;;;4.05;0.40;;;11.40;82.90;;;;;;5061720;28;20031;-81
2023/01/14 10:28:27;;;;;;;3.08;0.45;;;11.50;80.20;;;;;;5065047;28;20045;-81
2023/01/14 10:30:54;;;;;;;2.25;0.75;;;11.60;80.70;;;;;;5063122;28;20025;-81
2023/01/14 10:33:22;;;;;;;3.63;0.63;;;11.80;80.50;;;;;;5044378;28;20039;-82
2023/01/14 10:35:57;;;;;;;5.97;0.30;;;11.80;79.50;;;;;;5065658;28;20032;-81
2023/01/14 10:38:25;;;;;;;3.75;0.55;;;11.50;79.80;;;;;;5060014;28;20095;-80
2023/01/14 10:40:55;;;;;;;4.03;0.80;;;11.40;81.40;;;;;;5057768;28;20025;-80
2023/01/14 10:43:29;;;;;;;3.45;1.40;;;11.30;82.00;;;;;;5040812;28;20119;-80
2023/01/14 10:45:55;;;;;;;6.57;2.15;;;11.40;82.80;;;;;;5039076;28;20025;-80
2023/01/14 10:48:21;;;;;;;10.15;1.73;;;11.80;82.00;;;;;;5057498;28;20025;-81
2023/01/14 10:50:47;;;;;;;2.92;1.40;;;11.80;80.20;;;;;;5041971;28;20025;-81
2023/01/14 10:53:24;;;;;;;5.40;0.95;;;11.80;79.30;;;;;;5060948;28;20033;-81
2023/01/14 10:56:08;;;;;;;7.88;0.88;;;11.30;80.90;;;;;;5060996;28;20028;-80
2023/01/14 10:58:40;;;;;;;5.70;1.35;;;11.50;80.80;;;;;;5043091;28;20032;-80
2023/01/14 11:01:08;;;;;;;4.50;1.02;;;11.40;80.30;;;;;;5059622;28;20033;-80
2023/01/14 11:03:40;;;;;;;2.83;0.68;;;11.80;80.40;;;;;;5061807;28;20082;-80
2023/01/14 11:06:07;;;;;;;3.88;1.02;;;12.00;78.70;;;;;;5042330;28;20025;-80
2023/01/14 11:08:37;;;;;;;1.40;0.20;;;12.40;77.00;;;;;;5054425;28;20029;-80
2023/01/14 11:11:14;;;;;;;1.90;0.60;;;13.00;75.30;;;;;;5054778;28;20036;-81
2023/01/14 11:13:44;;;;;;;1.73;0.60;;;13.90;72.60;;;;;;5054352;28;20036;-81
2023/01/14 11:16:22;;;;;;;1.95;0.70;;;14.30;69.00;;;;;;5054655;28;20055;-81
2023/01/14 11:19:19;;;;;;;4.95;0.95;;;14.40;68.20;;;;;;5054384;28;20025;-81
2023/01/14 11:21:58;;;;;;;4.32;0.60;;;14.50;65.70;;;;;;5054187;28;20112;-80
2023/01/14 11:24:35;;;;;;;4.55;0.60;;;14.80;63.10;;;;;;5054185;28;20049;-80
2023/01/14 11:27:17;;;;;;;3.88;0.70;;;15.00;62.10;;;;;;5035855;28;20029;-81
2023/01/14 11:29:55;;;;;;;4.22;0.47;;;15.10;60.90;;;;;;5035662;28;20025;-79
2023/01/14 11:32:33;;;;;;;7.75;0.57;;;15.20;61.10;;;;;;5036943;28;20033;-79
2023/01/14 11:35:01;;;;;;;3.78;0.60;;;15.80;59.20;;;;;;5053657;28;20021;-81
2023/01/14 11:37:43;;;;;;;2.47;0.35;;;16.00;56.40;;;;;;5035933;28;20025;-80
2023/01/14 11:43:21;;;;;;;6.30;1.13;;;16.10;56.40;;;;;;5054084;28;20032;-83
2023/01/14 11:46:02;;;;;;;5.47;0.75;;;16.40;54.20;;;;;;5036534;28;20032;-82
2023/01/14 11:48:29;;;;;;;3.88;1.08;;;16.50;53.90;;;;;;5053866;28;20348;-81
2023/01/14 11:50:57;;;;;;;2.42;0.60;;;16.80;53.80;;;;;;5035796;28;20033;-82
2023/01/14 11:53:26;;;;;;;4.07;0.60;;;17.10;52.40;;;;;;5053773;28;20037;-82
2023/01/14 11:55:56;;;;;;;1.80;0.68;;;17.30;51.50;;;;;;5057280;28;20065;-81
2023/01/14 11:58:27;;;;;;;8.13;0.88;;;17.40;50.60;;;;;;5039700;28;20036;-81
2023/01/14 12:01:07;;;;;;;6.90;5.05;;;17.10;51.10;;;;;;5039639;28;20029;-81
2023/01/14 12:03:34;;;;;;;4.22;0.70;;;17.00;50.60;;;;;;5039694;28;20025;-82
2023/01/14 12:06:08;;;;;;;1.50;0.40;;;16.60;50.80;;;;;;5039795;28;20023;-81
2023/01/14 12:08:36;;;;;;;3.33;0.55;;;16.40;51.70;;;;;;5057114;28;20021;-82
2023/01/14 12:11:06;;;;;;;3.05;0.55;;;16.70;51.10;;;;;;5040772;28;20028;-82
2023/01/14 12:16:49;;;;;;;2.70;0.40;;;17.80;49.70;;;;;;5058248;28;20040;-81
2023/01/14 12:19:37;;;;;;;3.33;0.40;;;18.20;48.20;;;;;;5041377;28;20025;-81
2023/01/14 12:22:15;;;;;;;5.03;0.60;;;18.90;46.30;;;;;;5059339;28;20029;-82
2023/01/14 12:25:00;;;;;;;3.75;0.40;;;18.90;45.10;;;;;;5038851;28;20474;-82
2023/01/14 12:27:58;;;;;;;3.95;0.65;;;18.10;46.60;;;;;;5056378;28;20048;-80
2023/01/14 12:30:47;;;;;;;1.55;0.47;;;18.10;47.60;;;;;;5056835;28;20029;-83
2023/01/14 12:33:31;;;;;;;2.92;0.40;;;18.30;46.70;;;;;;5057184;28;20025;-81
2023/01/14 12:36:02;;;;;;;1.13;0.50;;;18.70;47.20;;;;;;5039117;28;20048;-81
2023/01/14 12:47:53;;;;;;;4.50;0.43;;;18.20;45.40;;;;;;5056186;28;20036;-82
2023/01/14 12:50:19;;;;;;;1.98;0.40;;;18.10;45.80;;;;;;5038568;28;20382;-81
2023/01/14 12:52:53;;;;;;;3.65;0.60;;;17.80;46.20;;;;;;5056459;28;20027;-81
2023/01/14 12:55:32;;;;;;;2.22;0.35;;;17.20;47.10;;;;;;5038508;28;20115;-80
2023/01/14 12:57:59;;;;;;;3.03;1.27;;;16.40;48.30;;;;;;5038431;28;20029;-80
2023/01/14 13:00:29;;;;;;;5.10;1.02;;;16.10;49.60;;;;;;5038582;28;20455;-81
2023/01/14 13:02:59;;;;;;;3.35;0.50;;;16.10;50.60;;;;;;5056171;28;20064;-80
2023/01/14 13:05:27;;;;;;;2.35;0.30;;;16.10;49.60;;;;;;5055700;28;20067;-81
2023/01/14 13:08:00;;;;;;;3.35;0.30;;;15.90;51.80;;;;;;5038263;28;20032;-81
2023/01/14 13:10:31;;;;;;;6.15;0.80;;;15.70;52.30;;;;;;5056208;28;20120;-82
2023/01/14 13:12:57;;;;;;;1.88;0.22;;;15.40;53.40;;;;;;5055989;28;20562;-81
2023/01/14 13:15:25;;;;;;;4.75;0.90;;;14.70;51.30;;;;;;5038272;28;20025;-81
2023/01/14 13:17:56;;;;;;;2.97;0.70;;;14.50;52.70;;;;;;5056071;28;20024;-81
2023/01/14 13:20:37;;;;;;;3.28;0.55;;;14.60;54.30;;;;;;5037939;28;20028;-82
2023/01/14 13:23:05;;;;;;;2.15;0.57;;;15.00;52.80;;;;;;5038301;28;20063;-81
2023/01/14 13:25:37;;;;;;;4.10;0.82;;;15.50;52.80;;;;;;5055857;28;20075;-81
2023/01/14 13:28:25;;;;;;;4.55;0.35;;;15.30;51.80;;;;;;5038075;28;20477;-82
2023/01/14 13:30:51;;;;;;;1.75;0.70;;;15.30;52.90;;;;;;5055767;28;20029;-80
2023/01/14 13:33:32;;;;;;;4.00;0.80;;;15.20;53.10;;;;;;5055633;28;20079;-82
2023/01/14 13:36:09;;;;;;;4.65;0.52;;;15.20;54.00;;;;;;5037728;28;20459;-80
2023/01/14 13:38:42;;;;;;;2.97;0.63;;;15.40;54.10;;;;;;5049290;28;20053;-80
2023/01/14 13:41:10;;;;;;;3.05;0.60;;;15.40;53.20;;;;;;5037425;28;20040;-81
2023/01/14 13:43:50;;;;;;;2.20;0.32;;;15.40;53.50;;;;;;5055133;28;20497;-79
2023/01/14 13:46:28;;;;;;;2.75;0.43;;;15.10;54.30;;;;;;5037691;28;20478;-81
2023/01/14 13:49:00;;;;;;;7.60;0.65;;;14.60;54.50;;;;;;5037477;28;20059;-82
2023/01/14 13:51:41;;;;;;;5.90;0.95;;;14.10;56.60;;;;;;5037460;28;20064;-82
2023/01/14 13:54:10;;;;;;;5.00;0.40;;;13.40;59.90;;;;;;5037251;28;20083;-82